Time;durP1;ratioP1;P1;durP2;ratioP2;P2;SDS_P1;SDS_P2;PMS_P1;PMS_P2;Temp;Humidity;BMP_temperature;BMP_pressure;BME280_temperature;BME280_humidity;BME280_pressure;Samples;Min_cycle;Max_cycle;Signal;HPM_P1;HPM_P2
2021/11/13 00:01:20;;;;;;;41.80;25.90;;;;;;;3.44;64.85;100140.38;1749882;82;21059;-35
2021/11/13 00:03:47;;;;;;;38.08;23.52;;;;;;;3.79;65.42;100193.97;1749917;82;21121;-36
2021/11/13 00:06:13;;;;;;;33.55;20.37;;;;;;;3.80;66.24;100198.25;1749654;82;21518;-35
2021/11/13 00:08:41;;;;;;;32.55;20.82;;;;;;;3.85;66.25;100202.98;1713988;83;21017;-35
2021/11/13 00:11:10;;;;;;;31.90;20.50;;;;;;;3.90;65.77;100201.56;1749649;82;21028;-36
2021/11/13 00:13:39;;;;;;;38.88;23.95;;;;;;;3.90;65.46;100204.25;1689714;83;21603;-35
2021/11/13 00:16:07;;;;;;;37.20;22.25;;;;;;;3.90;65.68;100202.91;1708935;84;21134;-36
2021/11/13 00:18:36;;;;;;;39.13;22.50;;;;;;;3.91;66.05;100199.14;1757857;81;21914;-35
2021/11/13 00:21:05;;;;;;;36.08;22.30;;;;;;;3.91;66.94;100203.16;1757531;81;20968;-35
2021/11/13 00:23:33;;;;;;;32.00;20.90;;;;;;;3.92;66.69;100203.39;1758270;81;21087;-35
2021/11/13 00:25:59;;;;;;;35.73;21.93;;;;;;;3.89;66.65;100202.64;1757656;80;21386;-35
2021/11/13 00:28:27;;;;;;;30.65;19.60;;;;;;;3.86;66.92;100205.92;1719453;83;21029;-35
2021/11/13 00:30:54;;;;;;;32.25;19.80;;;;;;;3.88;66.58;100210.44;1709024;84;20995;-35
2021/11/13 00:33:21;;;;;;;31.68;19.98;;;;;;;3.90;67.29;100214.17;1757709;81;20987;-35
2021/11/13 00:35:47;;;;;;;29.95;20.27;;;;;;;3.90;68.42;100218.20;1757521;81;21039;-35
2021/11/13 00:38:14;;;;;;;29.92;20.57;;;;;;;3.82;69.16;100210.30;1757726;81;21075;-35
2021/11/13 00:40:40;;;;;;;30.88;19.05;;;;;;;3.76;69.69;100216.83;1757648;81;21129;-35
2021/11/13 00:43:07;;;;;;;30.75;20.57;;;;;;;3.71;69.78;100208.86;1757483;81;20953;-36
2021/11/13 00:45:35;;;;;;;35.25;21.23;;;;;;;3.66;69.86;100211.62;1757622;81;21023;-35
2021/11/13 00:48:01;;;;;;;29.35;18.55;;;;;;;3.61;69.96;100210.36;1757357;81;21007;-35
2021/11/13 00:50:28;;;;;;;32.60;20.00;;;;;;;3.64;69.69;100211.10;1757545;81;21043;-35
2021/11/13 00:52:55;;;;;;;30.95;19.62;;;;;;;3.75;69.43;100208.52;1719079;83;21870;-35
2021/11/13 00:55:23;;;;;;;28.85;19.77;;;;;;;3.80;69.42;100205.75;1708893;84;20967;-35
2021/11/13 00:57:49;;;;;;;30.40;19.32;;;;;;;3.81;69.43;100211.38;1758213;80;20956;-35
2021/11/13 01:00:18;;;;;;;33.45;19.98;;;;;;;3.81;69.02;100206.02;1757628;81;21838;-35
2021/11/13 01:02:47;;;;;;;29.67;20.35;;;;;;;3.83;68.94;100205.70;1758303;81;21901;-35
2021/11/13 01:05:13;;;;;;;31.73;20.52;;;;;;;3.81;69.08;100206.02;1757569;81;21848;-35
2021/11/13 01:07:42;;;;;;;30.97;21.10;;;;;;;3.75;69.16;100208.52;1757552;81;20992;-35
2021/11/13 01:10:10;;;;;;;29.67;19.17;;;;;;;3.73;69.19;100213.36;1757894;80;21047;-35
2021/11/13 01:12:39;;;;;;;29.70;19.32;;;;;;;3.77;68.81;100213.06;1756285;81;21028;-35
2021/11/13 01:15:08;;;;;;;28.77;19.07;;;;;;;3.84;68.58;100218.02;1746246;82;21072;-35
2021/11/13 01:17:35;;;;;;;31.07;19.20;;;;;;;3.82;68.59;100212.17;1746917;82;21112;-35
2021/11/13 01:20:06;;;;;;;36.93;20.30;;;;;;;3.72;68.71;100213.14;1746060;82;21151;-35
2021/11/13 01:22:37;;;;;;;33.25;19.12;;;;;;;3.67;69.01;100211.88;1746634;82;20980;-35
2021/11/13 01:25:05;;;;;;;34.53;19.98;;;;;;;3.65;69.07;100211.36;1746301;82;21024;-35
2021/11/13 01:27:33;;;;;;;30.20;19.85;;;;;;;3.66;69.14;100211.62;1771099;80;21048;-35
2021/11/13 01:30:01;;;;;;;29.48;20.12;;;;;;;3.63;69.13;100206.82;1770877;80;21142;-35
2021/11/13 01:32:29;;;;;;;27.25;18.25;;;;;;;3.63;68.93;100208.73;1777138;80;20969;-35
2021/11/13 01:34:55;;;;;;;26.77;18.67;;;;;;;3.65;68.16;100204.66;1777273;80;20949;-35
2021/11/13 01:37:22;;;;;;;30.55;20.65;;;;;;;3.71;68.12;100211.54;1777223;80;20972;-35
2021/11/13 01:39:48;;;;;;;31.75;20.17;;;;;;;3.72;68.48;100219.84;1777358;80;21550;-35
2021/11/13 01:42:17;;;;;;;30.70;18.92;;;;;;;3.68;68.47;100207.31;1777391;80;20941;-35
2021/11/13 01:44:45;;;;;;;26.00;18.85;;;;;;;3.67;68.42;100202.49;1777351;80;21290;-35
2021/11/13 01:47:12;;;;;;;32.35;18.85;;;;;;;3.63;68.62;100210.84;1777833;80;21035;-35
2021/11/13 01:49:38;;;;;;;30.92;20.62;;;;;;;3.60;68.77;100209.30;1777453;80;21088;-35
2021/11/13 01:52:11;;;;;;;30.32;19.73;;;;;;;3.54;69.03;100215.28;1777324;80;21013;-35
2021/11/13 01:54:40;;;;;;;31.20;20.52;;;;;;;3.53;69.26;100221.75;1777233;80;21655;-35
2021/11/13 01:57:11;;;;;;;29.18;21.35;;;;;;;3.55;69.30;100222.24;1777465;80;20933;-36
2021/11/13 01:59:40;;;;;;;33.30;21.68;;;;;;;3.61;69.46;100226.98;1777048;80;21530;-35
2021/11/13 02:02:08;;;;;;;30.15;19.87;;;;;;;3.63;69.54;100222.91;1777338;80;21011;-36
2021/11/13 02:04:35;;;;;;;27.75;18.70;;;;;;;3.67;69.44;100224.48;1777517;80;21058;-35
2021/11/13 02:07:04;;;;;;;31.68;20.68;;;;;;;3.67;69.09;100222.61;1777116;80;21024;-35
2021/11/13 02:09:31;;;;;;;34.73;20.50;;;;;;;3.66;68.68;100222.34;1777437;80;20968;-35
2021/11/13 02:11:59;;;;;;;31.15;19.77;;;;;;;3.61;68.55;100222.42;1776979;80;21043;-35
2021/11/13 02:14:28;;;;;;;27.35;18.42;;;;;;;3.55;68.37;100216.87;1781730;80;21000;-35
2021/11/13 02:16:57;;;;;;;35.90;21.37;;;;;;;3.52;68.13;100220.70;1783303;80;21586;-35
2021/11/13 02:19:23;;;;;;;29.90;19.77;;;;;;;3.53;68.11;100217.73;1783125;80;21858;-35
2021/11/13 02:21:53;;;;;;;;;;;;;;;3.60;68.38;100220.83;1785888;80;21028;-35
2021/11/13 02:24:20;;;;;;;33.42;21.30;;;;;;;3.69;68.20;100219.07;1783196;80;20153;-35
2021/11/13 02:26:46;;;;;;;33.90;21.20;;;;;;;3.59;68.51;100213.86;1783287;80;21007;-36
2021/11/13 02:29:14;;;;;;;28.85;19.80;;;;;;;3.60;68.88;100214.66;1783302;80;21011;-35
2021/11/13 02:31:43;;;;;;;33.70;21.02;;;;;;;3.59;68.97;100217.09;1783551;80;21076;-35
2021/11/13 02:34:11;;;;;;;43.48;20.25;;;;;;;3.57;68.45;100225.44;1783305;80;21043;-36
2021/11/13 02:36:39;;;;;;;39.70;22.15;;;;;;;3.58;67.99;100220.88;1783332;80;20963;-35
2021/11/13 02:39:11;;;;;;;32.48;20.12;;;;;;;3.54;68.29;100228.69;1783543;80;21099;-35
2021/11/13 02:41:42;;;;;;;32.80;20.57;;;;;;;3.51;68.37;100230.63;1783330;80;22175;-35
2021/11/13 02:44:11;;;;;;;30.17;20.52;;;;;;;3.57;68.07;100233.48;1783210;80;21113;-35
2021/11/13 02:46:38;;;;;;;29.30;18.27;;;;;;;3.63;67.77;100232.30;1783171;80;21000;-35
2021/11/13 02:49:06;;;;;;;32.20;18.87;;;;;;;3.67;67.74;100227.97;1783348;80;21518;-35
2021/11/13 02:51:33;;;;;;;29.50;20.32;;;;;;;3.66;68.01;100229.05;1783262;80;21058;-35
2021/11/13 02:54:00;;;;;;;31.37;20.45;;;;;;;3.63;68.50;100234.98;1783543;80;21106;-36
2021/11/13 02:56:27;;;;;;;35.48;20.75;;;;;;;3.63;68.37;100236.31;1783144;80;21120;-35
2021/11/13 02:58:54;;;;;;;35.95;21.40;;;;;;;3.64;67.77;100239.25;1783152;80;21026;-35
2021/11/13 03:01:23;;;;;;;24.77;17.73;;;;;;;3.65;67.26;100232.81;1771865;80;20956;-35
2021/11/13 03:03:53;;;;;;;28.38;19.77;;;;;;;3.63;67.19;100228.27;1752240;81;21023;-36
2021/11/13 03:06:23;;;;;;;27.90;18.70;;;;;;;3.62;67.42;100232.06;1752191;81;21582;-35
2021/11/13 03:08:50;;;;;;;28.55;18.57;;;;;;;3.60;67.12;100238.25;1752443;81;21098;-35
2021/11/13 03:11:18;;;;;;;25.88;17.57;;;;;;;3.65;66.67;100240.86;1752174;81;20980;-35
2021/11/13 03:13:48;;;;;;;24.33;17.03;;;;;;;3.72;66.31;100244.52;1752332;81;21549;-35
2021/11/13 03:16:16;;;;;;;26.25;18.07;;;;;;;3.76;66.21;100250.89;1752162;81;21531;-35
2021/11/13 03:18:42;;;;;;;23.77;16.75;;;;;;;3.76;66.33;100244.98;1752677;81;21043;-35
2021/11/13 03:21:11;;;;;;;24.30;16.95;;;;;;;3.78;66.40;100237.42;1752260;81;20992;-35
2021/11/13 03:23:44;;;;;;;25.85;17.52;;;;;;;3.79;66.81;100233.66;1746660;81;21036;-37
2021/11/13 03:26:20;;;;;;;26.07;17.95;;;;;;;3.81;67.22;100244.91;1759243;80;21079;-35
2021/11/13 03:29:09;;;;;;;24.18;17.73;;;;;;;3.83;67.13;100242.70;1783890;80;21060;-35
2021/11/13 03:31:36;;;;;;;24.37;17.17;;;;;;;3.84;66.91;100240.28;1783470;80;21044;-35
2021/11/13 03:34:05;;;;;;;20.92;14.90;;;;;;;3.87;66.90;100248.30;1783688;80;21095;-35
2021/11/13 03:36:33;;;;;;;25.85;16.20;;;;;;;3.93;66.80;100241.74;1783263;80;21612;-35
2021/11/13 03:38:59;;;;;;;24.15;16.50;;;;;;;4.03;66.72;100246.94;1777348;80;21051;-35
2021/11/13 03:41:28;;;;;;;26.85;18.77;;;;;;;4.12;66.62;100247.05;1783211;80;21059;-35
2021/11/13 03:43:54;;;;;;;28.52;18.25;;;;;;;4.16;66.83;100244.86;1783366;80;21020;-35
2021/11/13 03:46:21;;;;;;;27.95;18.57;;;;;;;4.21;67.15;100247.42;1783253;80;21554;-35
2021/11/13 03:48:49;;;;;;;27.40;18.57;;;;;;;4.27;66.93;100254.84;1783287;80;20972;-35
2021/11/13 03:51:16;;;;;;;27.07;18.48;;;;;;;4.29;66.86;100249.99;1782938;80;20987;-35
2021/11/13 03:53:45;;;;;;;29.82;19.30;;;;;;;4.32;66.83;100254.76;1783241;80;21574;-35
2021/11/13 03:56:11;;;;;;;27.93;19.77;;;;;;;4.34;66.89;100252.58;1783199;80;21067;-35
2021/11/13 03:58:38;;;;;;;28.85;19.37;;;;;;;4.36;67.07;100249.04;1783388;80;21752;-35
2021/11/13 04:01:04;;;;;;;30.55;20.90;;;;;;;4.42;66.97;100253.23;1783019;80;21040;-35
2021/11/13 04:03:31;;;;;;;32.38;20.55;;;;;;;4.50;67.12;100257.94;1783322;80;21550;-35
2021/11/13 04:05:57;;;;;;;32.38;20.68;;;;;;;4.60;67.03;100255.03;1783017;80;21043;-35
2021/11/13 04:08:24;;;;;;;31.27;20.95;;;;;;;4.64;66.92;100252.02;1783518;80;21012;-35
2021/11/13 04:10:52;;;;;;;31.77;21.48;;;;;;;4.68;66.91;100255.70;1783291;80;21107;-35
2021/11/13 04:13:18;;;;;;;30.77;21.42;;;;;;;4.71;66.81;100255.09;1782977;79;21031;-36
2021/11/13 04:15:45;;;;;;;31.70;21.10;;;;;;;4.71;66.65;100260.47;1766711;81;20994;-35
2021/11/13 04:18:12;;;;;;;31.40;20.82;;;;;;;4.73;66.62;100261.52;1766624;81;21087;-35
2021/11/13 04:20:38;;;;;;;32.20;20.95;;;;;;;4.73;66.62;100258.29;1766680;81;21020;-35
2021/11/13 04:23:05;;;;;;;33.50;20.35;;;;;;;4.73;66.79;100260.17;1766654;81;21796;-35
2021/11/13 04:25:33;;;;;;;28.47;20.27;;;;;;;4.77;66.73;100260.63;1766567;81;21068;-35
2021/11/13 04:27:59;;;;;;;32.80;21.60;;;;;;;4.86;66.66;100258.57;1766342;81;20973;-36
2021/11/13 04:30:28;;;;;;;31.90;21.68;;;;;;;4.94;66.55;100261.92;1739005;81;21776;-35
2021/11/13 04:32:55;;;;;;;32.85;21.93;;;;;;;4.97;66.60;100258.63;1735949;82;21092;-36
2021/11/13 04:35:23;;;;;;;34.10;23.27;;;;;;;5.00;66.52;100256.67;1735968;82;21092;-36
2021/11/13 04:37:56;;;;;;;35.20;23.20;;;;;;;5.03;66.31;100259.58;1735956;82;21773;-35
2021/11/13 04:40:26;;;;;;;31.30;21.85;;;;;;;5.03;66.42;100258.23;1735563;82;20972;-35
2021/11/13 04:42:53;;;;;;;31.15;21.57;;;;;;;5.03;66.42;100262.80;1736032;82;21028;-35
2021/11/13 04:45:20;;;;;;;33.55;21.73;;;;;;;5.01;66.41;100263.09;1736118;82;21033;-35
2021/11/13 04:47:48;;;;;;;34.15;21.68;;;;;;;5.00;66.36;100258.81;1735990;82;20965;-35
2021/11/13 04:50:18;;;;;;;30.52;20.10;;;;;;;4.96;66.21;100259.17;1735830;81;21028;-36
2021/11/13 04:52:45;;;;;;;33.23;22.17;;;;;;;4.97;66.02;100256.73;1736137;82;21499;-35
2021/11/13 04:55:13;;;;;;;32.28;21.33;;;;;;;4.99;65.69;100255.88;1735891;82;21052;-35
2021/11/13 04:57:40;;;;;;;35.28;23.25;;;;;;;4.99;65.84;100255.07;1735980;82;21084;-35
2021/11/13 05:00:12;;;;;;;35.17;23.45;;;;;;;4.94;65.99;100261.92;1736092;82;21111;-35
2021/11/13 05:02:38;;;;;;;;;;;;;;;4.89;65.95;100270.85;1738566;82;21035;-35
2021/11/13 05:05:07;;;;;;;34.55;22.75;;;;;;;4.84;66.03;100274.22;1736242;82;20161;-35
2021/11/13 05:07:35;;;;;;;35.52;21.90;;;;;;;4.67;65.94;100280.96;1736432;82;21084;-35
2021/11/13 05:10:02;;;;;;;34.98;22.13;;;;;;;4.66;65.80;100282.05;1736508;82;21025;-35
2021/11/13 05:12:29;;;;;;;33.75;22.27;;;;;;;4.63;65.41;100281.31;1736242;82;21983;-35
2021/11/13 05:14:55;;;;;;;33.05;22.30;;;;;;;4.60;65.06;100295.89;1746053;81;21019;-35
2021/11/13 05:17:22;;;;;;;33.67;21.70;;;;;;;4.54;65.12;100299.75;1754628;81;21892;-35
2021/11/13 05:19:49;;;;;;;30.30;20.90;;;;;;;4.46;65.08;100303.90;1754592;81;21036;-35
2021/11/13 05:22:17;;;;;;;31.37;20.43;;;;;;;4.37;65.50;100308.36;1754458;81;21083;-35
2021/11/13 05:24:44;;;;;;;31.50;21.00;;;;;;;4.36;65.76;100306.75;1754392;81;21120;-35
2021/11/13 05:29:42;;;;;;;35.68;21.25;;;;;;;4.41;65.48;100316.06;1836184;78;22588;-34
2021/11/13 05:32:11;;;;;;;29.35;19.98;;;;;;;4.29;65.94;100323.27;1806048;79;21011;-34
2021/11/13 05:34:37;;;;;;;33.13;21.42;;;;;;;4.33;65.98;100324.80;1806100;79;21133;-34
2021/11/13 05:37:06;;;;;;;33.08;21.65;;;;;;;4.36;65.86;100329.03;1805814;79;21517;-34
2021/11/13 05:39:36;;;;;;;34.03;22.05;;;;;;;4.40;65.83;100331.95;1805865;79;20947;-34
2021/11/13 05:42:04;;;;;;;32.38;20.65;;;;;;;4.40;65.64;100333.30;1756738;79;20953;-35
2021/11/13 05:44:33;;;;;;;33.25;21.82;;;;;;;4.37;65.88;100341.91;1753037;81;21004;-34
2021/11/13 05:47:00;;;;;;;35.55;22.32;;;;;;;4.38;66.09;100340.83;1753194;81;21131;-35
2021/11/13 05:49:28;;;;;;;33.35;22.13;;;;;;;4.40;66.16;100339.20;1753014;81;20977;-34
2021/11/13 05:51:55;;;;;;;33.40;20.75;;;;;;;4.43;66.14;100335.91;1753371;81;20972;-34
2021/11/13 05:54:21;;;;;;;29.80;20.88;;;;;;;4.53;66.04;100337.89;1753369;81;20933;-34
2021/11/13 05:56:48;;;;;;;33.30;21.45;;;;;;;4.56;66.14;100339.97;1753833;81;21543;-34
2021/11/13 05:59:14;;;;;;;31.85;21.85;;;;;;;4.55;66.50;100339.72;1753354;81;21032;-34
2021/11/13 06:01:42;;;;;;;33.65;21.68;;;;;;;4.58;66.55;100339.69;1753459;81;21087;-34
2021/11/13 06:04:10;;;;;;;32.35;21.82;;;;;;;4.60;66.49;100345.00;1753094;81;20980;-34
2021/11/13 06:06:38;;;;;;;37.53;23.00;;;;;;;4.60;66.40;100349.03;1753254;81;20964;-34
2021/11/13 06:09:05;;;;;;;35.30;21.85;;;;;;;4.56;66.63;100353.40;1753018;81;21006;-34
2021/11/13 06:11:32;;;;;;;35.55;23.25;;;;;;;4.55;66.63;100359.86;1753159;81;21135;-34
2021/11/13 06:13:59;;;;;;;37.93;21.37;;;;;;;4.54;66.79;100359.63;1753019;81;20973;-34
2021/11/13 06:16:26;;;;;;;33.28;21.70;;;;;;;4.57;66.78;100360.91;1753255;81;21033;-34
2021/11/13 06:18:52;;;;;;;34.35;22.80;;;;;;;4.62;66.62;100360.28;1753148;81;21000;-34
2021/11/13 06:21:20;;;;;;;34.65;23.25;;;;;;;4.67;66.56;100364.23;1753125;81;20988;-34
2021/11/13 06:23:47;;;;;;;32.50;22.40;;;;;;;4.70;66.57;100374.91;1752977;81;21117;-34
2021/11/13 06:26:14;;;;;;;33.38;22.77;;;;;;;4.73;66.63;100368.97;1760934;80;21080;-34
2021/11/13 06:28:41;;;;;;;33.53;23.07;;;;;;;4.78;66.61;100368.33;1785583;79;20953;-34
2021/11/13 06:31:08;;;;;;;36.17;23.07;;;;;;;4.81;66.50;100362.90;1787377;79;20994;-34
2021/11/13 06:33:37;;;;;;;35.23;24.20;;;;;;;4.84;66.51;100367.70;1787910;80;21025;-35
2021/11/13 06:36:05;;;;;;;34.55;22.87;;;;;;;4.86;66.76;100366.04;1787407;79;22363;-35
2021/11/13 06:38:33;;;;;;;34.35;22.58;;;;;;;4.86;67.10;100374.09;1780902;79;21514;-35
2021/11/13 06:40:59;;;;;;;36.00;23.73;;;;;;;4.89;67.13;100375.64;1767058;80;20973;-35
2021/11/13 06:43:26;;;;;;;35.98;23.47;;;;;;;4.97;67.07;100371.48;1787070;80;20997;-34
2021/11/13 06:45:53;;;;;;;35.60;23.83;;;;;;;5.06;67.38;100379.90;1787159;80;21021;-34
2021/11/13 06:48:20;;;;;;;43.38;28.42;;;;;;;5.12;67.61;100380.61;1787084;80;21187;-34
2021/11/13 06:50:47;;;;;;;47.93;29.60;;;;;;;5.18;67.56;100384.22;1787018;80;20917;-34
2021/11/13 06:53:14;;;;;;;39.65;25.10;;;;;;;5.25;67.50;100383.84;1787044;80;21254;-34
2021/11/13 06:55:41;;;;;;;38.20;25.32;;;;;;;5.28;67.49;100383.23;1786903;80;21618;-34
2021/11/13 06:58:08;;;;;;;39.30;24.55;;;;;;;5.33;67.84;100384.47;1786737;80;21029;-34
2021/11/13 07:00:35;;;;;;;39.13;23.60;;;;;;;5.40;68.15;100388.91;1786909;79;21131;-35
2021/11/13 07:03:03;;;;;;;34.05;23.55;;;;;;;5.54;68.21;100396.42;1786865;80;21001;-35
2021/11/13 07:05:32;;;;;;;;;;;;;;;5.67;68.18;100399.64;1789463;79;20968;-34
2021/11/13 07:07:59;;;;;;;42.60;24.05;;;;;;;5.77;68.24;100397.83;1780870;80;20412;-35
2021/11/13 07:10:28;;;;;;;37.80;24.40;;;;;;;5.41;68.24;100342.66;1782036;79;20948;-34
2021/11/13 07:12:56;;;;;;;35.30;24.27;;;;;;;5.89;68.09;100396.25;1780970;80;21865;-34
2021/11/13 07:15:24;;;;;;;36.25;25.30;;;;;;;6.00;67.96;100399.52;1780664;80;21012;-34
2021/11/13 07:17:51;;;;;;;37.73;25.70;;;;;;;6.09;67.85;100401.73;1780658;80;20977;-34
2021/11/13 07:20:19;;;;;;;38.38;24.45;;;;;;;6.18;67.83;100398.56;1780620;80;20944;-35
2021/11/13 07:22:46;;;;;;;35.75;24.85;;;;;;;6.26;67.81;100399.17;1786021;79;21475;-34
2021/11/13 07:25:14;;;;;;;37.03;25.75;;;;;;;6.36;67.76;100405.66;1786703;80;21138;-34
2021/11/13 07:27:45;;;;;;;41.18;27.73;;;;;;;6.51;67.71;100409.34;1787002;80;20934;-35
2021/11/13 07:30:16;;;;;;;45.83;30.48;;;;;;;6.65;67.63;100407.13;1789307;80;20988;-35
2021/11/13 07:32:44;;;;;;;41.48;28.60;;;;;;;6.78;67.27;100407.59;1789937;79;21531;-35
2021/11/13 07:35:11;;;;;;;43.45;30.25;;;;;;;6.80;67.44;100401.36;1789666;79;20968;-35
2021/11/13 07:37:37;;;;;;;42.67;28.05;;;;;;;6.90;67.53;100406.48;1789751;79;21087;-35
2021/11/13 07:40:06;;;;;;;42.13;29.87;;;;;;;7.06;67.28;100404.99;1789522;80;20973;-35
2021/11/13 07:42:32;;;;;;;38.40;26.42;;;;;;;7.26;66.97;100409.81;1789743;80;21530;-35
2021/11/13 07:44:59;;;;;;;39.48;25.40;;;;;;;7.49;66.34;100407.85;1789344;80;21029;-35
2021/11/13 07:47:26;;;;;;;43.05;31.20;;;;;;;7.78;65.81;100409.98;1789357;80;20958;-35
2021/11/13 07:49:53;;;;;;;43.42;26.68;;;;;;;8.07;65.02;100411.53;1789175;80;22339;-35
2021/11/13 07:52:20;;;;;;;38.90;26.07;;;;;;;8.28;64.40;100409.77;1788994;80;21589;-35
2021/11/13 07:54:47;;;;;;;37.15;24.15;;;;;;;8.49;63.87;100406.45;1789379;79;20969;-34
2021/11/13 07:57:14;;;;;;;35.48;22.95;;;;;;;8.65;63.04;100410.27;1789221;79;21567;-35
2021/11/13 07:59:42;;;;;;;33.35;22.25;;;;;;;8.75;62.75;100405.08;1789468;79;21511;-35
2021/11/13 08:02:09;;;;;;;30.77;20.97;;;;;;;8.82;62.35;100400.75;1789405;80;21801;-35
2021/11/13 08:04:36;;;;;;;113.25;28.17;;;;;;;8.94;62.06;100399.54;1789251;80;20969;-35
2021/11/13 08:07:04;;;;;;;47.58;22.00;;;;;;;9.08;61.60;100404.73;1789292;80;21515;-35
2021/11/13 08:09:30;;;;;;;30.92;20.92;;;;;;;9.15;60.92;100404.45;1789383;80;20991;-35
2021/11/13 08:11:57;;;;;;;31.52;20.62;;;;;;;9.18;60.86;100407.09;1789266;79;21065;-35
2021/11/13 08:14:23;;;;;;;30.52;21.37;;;;;;;9.24;60.89;100405.80;1789209;78;21141;-36
2021/11/13 08:16:51;;;;;;;33.18;22.67;;;;;;;9.32;60.38;100408.22;1789408;79;20930;-36
2021/11/13 08:19:19;;;;;;;33.40;21.87;;;;;;;9.37;60.23;100410.75;1789477;80;21003;-35
2021/11/13 08:21:45;;;;;;;37.25;23.15;;;;;;;9.43;60.07;100414.87;1789598;79;21021;-35
2021/11/13 08:24:12;;;;;;;33.65;22.93;;;;;;;9.51;59.73;100415.38;1788356;80;21515;-35
2021/11/13 08:26:40;;;;;;;29.07;21.55;;;;;;;9.59;59.57;100414.53;1774203;79;20959;-35
2021/11/13 08:29:11;;;;;;;32.50;20.37;;;;;;;9.70;59.48;100416.30;1776712;79;20959;-33
2021/11/13 08:31:38;;;;;;;40.00;24.60;;;;;;;9.80;59.12;100414.02;1786726;79;20981;-33
2021/11/13 08:34:05;;;;;;;32.78;22.02;;;;;;;9.91;58.64;100409.02;1786737;79;21015;-32
2021/11/13 08:36:31;;;;;;;32.55;20.37;;;;;;;10.04;58.56;100401.98;1780591;80;21067;-34
2021/11/13 08:38:58;;;;;;;28.30;19.17;;;;;;;10.20;58.07;100405.48;1771825;80;22029;-35
2021/11/13 08:41:24;;;;;;;28.27;19.85;;;;;;;10.31;57.11;100406.67;1762601;80;21064;-35
2021/11/13 08:43:51;;;;;;;31.48;18.52;;;;;;;10.42;56.85;100405.12;1756267;80;21070;-35
2021/11/13 08:46:17;;;;;;;25.82;18.77;;;;;;;10.58;56.65;100402.59;1758686;80;20989;-35
2021/11/13 08:48:46;;;;;;;28.70;19.82;;;;;;;10.72;56.06;100403.88;1774147;78;21092;-35
2021/11/13 08:51:13;;;;;;;27.82;19.02;;;;;;;10.81;55.94;100404.59;1781889;80;21568;-35
2021/11/13 08:53:39;;;;;;;28.77;18.75;;;;;;;10.93;55.67;100405.19;1781717;78;20933;-36
2021/11/13 08:56:08;;;;;;;26.65;18.37;;;;;;;11.07;54.73;100403.52;1780578;78;20953;-36
2021/11/13 08:58:35;;;;;;;26.55;17.35;;;;;;;11.18;53.78;100401.95;1787828;79;21006;-35
2021/11/13 09:01:05;;;;;;;26.40;18.00;;;;;;;11.22;52.48;100396.87;1783790;78;21015;-35
2021/11/13 09:03:37;;;;;;;25.23;16.12;;;;;;;11.17;53.00;100401.72;1780446;79;21783;-36
2021/11/13 09:06:08;;;;;;;27.25;17.95;;;;;;;11.19;52.33;100403.52;1785268;80;20977;-35
2021/11/13 09:08:39;;;;;;;27.85;17.48;;;;;;;11.23;51.69;100401.73;1786282;79;21003;-35
2021/11/13 09:11:07;;;;;;;24.85;15.98;;;;;;;11.26;51.64;100399.13;1781621;80;26601;-35
2021/11/13 09:13:35;;;;;;;27.10;18.00;;;;;;;11.31;51.42;100396.19;1782157;79;21013;-36
2021/11/13 09:16:03;;;;;;;25.08;17.05;;;;;;;11.30;51.97;100397.88;1786626;79;21124;-36
2021/11/13 09:18:32;;;;;;;25.60;17.65;;;;;;;11.31;51.66;100396.75;1785255;79;21428;-36
2021/11/13 09:20:59;;;;;;;24.70;16.85;;;;;;;11.32;51.56;100401.85;1779125;80;21486;-36
2021/11/13 09:23:27;;;;;;;26.07;16.42;;;;;;;11.33;51.56;100398.55;1778360;80;21558;-35
2021/11/13 09:25:54;;;;;;;23.05;16.80;;;;;;;11.36;51.51;100401.96;1785924;79;21593;-35
2021/11/13 09:28:21;;;;;;;20.55;14.85;;;;;;;11.44;51.41;100398.33;1786352;79;21123;-35
2021/11/13 09:30:48;;;;;;;22.62;15.70;;;;;;;11.52;50.28;100398.01;1767567;79;20941;-35
2021/11/13 09:33:16;;;;;;;20.92;14.13;;;;;;;11.56;50.43;100394.27;1769304;81;20973;-35
2021/11/13 09:35:43;;;;;;;23.07;15.90;;;;;;;11.75;50.34;100397.22;1749888;81;21257;-35
2021/11/13 09:38:10;;;;;;;21.27;14.83;;;;;;;11.90;49.25;100397.66;1709071;82;21374;-36
2021/11/13 09:40:37;;;;;;;33.88;21.35;;;;;;;12.02;49.25;100400.33;1698480;84;21149;-36
2021/11/13 09:43:06;;;;;;;23.07;15.20;;;;;;;12.19;48.30;100395.99;1703520;83;21554;-36
2021/11/13 09:45:34;;;;;;;30.57;19.55;;;;;;;12.23;47.72;100390.09;1712681;83;21062;-36
2021/11/13 09:48:02;;;;;;;23.62;15.40;;;;;;;12.29;48.01;100391.43;1718503;83;21085;-36
2021/11/13 09:50:33;;;;;;;19.73;14.10;;;;;;;12.40;47.64;100389.78;1727762;83;21081;-36
2021/11/13 09:53:01;;;;;;;33.92;23.52;;;;;;;12.56;47.49;100396.06;1714165;81;21079;-36
2021/11/13 09:55:28;;;;;;;31.95;23.25;;;;;;;12.72;47.47;100389.87;1720047;82;21046;-36
2021/11/13 09:57:55;;;;;;;22.62;16.17;;;;;;;12.76;46.73;100394.27;1707911;83;20988;-36
2021/11/13 10:00:24;;;;;;;24.80;15.48;;;;;;;12.67;46.87;100395.56;1720599;83;21089;-36
2021/11/13 10:02:51;;;;;;;22.22;15.32;;;;;;;12.58;47.40;100391.65;1725237;83;21025;-36
2021/11/13 10:05:18;;;;;;;24.43;16.65;;;;;;;12.60;47.24;100391.52;1758895;81;21846;-36
2021/11/13 10:07:46;;;;;;;21.25;16.10;;;;;;;12.66;47.10;100398.06;1772006;81;21085;-36
2021/11/13 10:10:18;;;;;;;25.82;17.10;;;;;;;12.73;47.01;100400.39;1765938;81;21035;-36
2021/11/13 10:12:46;;;;;;;24.40;17.32;;;;;;;12.86;46.64;100402.49;1768237;80;22082;-36
2021/11/13 10:15:31;;;;;;;24.12;16.85;;;;;;;12.92;46.52;100400.54;1769908;79;21591;-36
2021/11/13 10:18:19;;;;;;;23.35;16.23;;;;;;;13.00;46.35;100397.41;1764982;81;22003;-36
2021/11/13 10:20:54;;;;;;;20.88;15.75;;;;;;;13.15;46.23;100395.88;1769142;81;21075;-36
2021/11/13 10:23:28;;;;;;;23.67;16.32;;;;;;;13.28;45.80;100389.98;1774241;80;21073;-36
2021/11/13 10:26:16;;;;;;;23.22;16.40;;;;;;;13.34;45.83;100392.66;1758085;81;21010;-36
2021/11/13 10:29:00;;;;;;;28.67;18.00;;;;;;;13.44;45.52;100397.58;1785147;79;21057;-36
2021/11/13 10:31:31;;;;;;;24.32;17.02;;;;;;;13.39;45.30;100388.31;1771354;79;21817;-36
2021/11/13 10:34:05;;;;;;;26.60;17.30;;;;;;;13.36;45.71;100386.27;1772010;80;21579;-38
2021/11/13 10:36:35;;;;;;;21.87;16.07;;;;;;;13.37;45.39;100387.06;1767061;79;20990;-39
2021/11/13 10:39:10;;;;;;;100.42;63.92;;;;;;;13.42;45.58;100386.23;1749418;80;21469;-38
2021/11/13 10:41:52;;;;;;;35.48;22.98;;;;;;;13.54;44.88;100386.72;1741943;81;21005;-38
2021/11/13 10:44:37;;;;;;;24.87;17.10;;;;;;;13.49;44.83;100386.41;1748958;80;21113;-38
2021/11/13 10:47:22;;;;;;;45.40;32.67;;;;;;;13.34;45.00;100390.52;1748809;81;20957;-39
2021/11/13 10:49:51;;;;;;;34.90;27.70;;;;;;;13.26;45.66;100385.48;1762498;81;21085;-39
2021/11/13 10:52:20;;;;;;;25.88;17.30;;;;;;;13.43;45.70;100386.46;1745483;80;20997;-36
2021/11/13 10:54:51;;;;;;;26.30;17.65;;;;;;;13.75;45.40;100380.94;1768872;81;21092;-36
2021/11/13 10:57:27;;;;;;;25.37;17.27;;;;;;;14.09;44.81;100378.77;1760440;81;21074;-36
2021/11/13 10:59:54;;;;;;;22.60;16.32;;;;;;;14.44;43.37;100379.30;1756067;81;21514;-36
2021/11/13 11:02:22;;;;;;;22.45;16.48;;;;;;;14.64;43.23;100379.50;1744958;81;21526;-36
2021/11/13 11:04:49;;;;;;;23.32;17.00;;;;;;;14.75;42.85;100377.19;1743937;81;20981;-36
2021/11/13 11:07:21;;;;;;;26.00;16.77;;;;;;;14.97;42.44;100381.64;1749895;81;21589;-36
2021/11/13 11:10:08;;;;;;;24.80;17.10;;;;;;;15.22;42.18;100380.92;1741859;81;21139;-36
2021/11/13 11:12:34;;;;;;;25.77;16.75;;;;;;;15.51;41.79;100375.93;1742492;81;20973;-36
2021/11/13 11:15:01;;;;;;;25.45;17.40;;;;;;;15.65;40.86;100380.23;1746475;81;21113;-36
2021/11/13 11:17:30;;;;;;;27.65;17.55;;;;;;;15.62;40.78;100370.84;1749013;81;21065;-36
2021/11/13 11:20:04;;;;;;;27.32;18.60;;;;;;;15.63;40.58;100373.80;1771607;81;21081;-36
2021/11/13 11:22:32;;;;;;;27.48;19.00;;;;;;;15.58;40.41;100376.84;1770640;80;21035;-36
2021/11/13 11:25:06;;;;;;;23.55;17.92;;;;;;;15.50;40.45;100368.84;1728501;82;20970;-36